Odesskoe, Russia
Current Conditions -  °F | °C
As of 2:00 AM on Monday 26 Jan 2015 (Local Time) from UNOO Reporting Station
Overcast Overcast  
Wind Chill: -22°   Ceiling: 6600
Heat Index: -6°   Visibility: 5mi
Dew Point: -11°   Wind: 9mph
Humidity: 77%   Direction: 230°SW
Pressure: 30.86"   Gusts: NA
Location:  54.2°N, 72.97°E
Report Text: UNOO 252000Z 23004MPS 8000 OVC066 M21/M24 Q1045 25820545 NOSIGRMK QFE775
Loading
Personal Weather Stations






























Interactive Weather Map New forecast layout! Learn more

10-Day Weather Forecast

Advertisements
Track Severe Weather on mobile